createdAt,value
2023-01-07T00:01:54.628Z,0.80
2023-01-07T00:04:21.801Z,1.20
2023-01-07T00:06:50.105Z,1.85
2023-01-07T00:09:17.285Z,1.10
2023-01-07T00:11:45.849Z,1.15
2023-01-07T00:14:14.387Z,1.65
2023-01-07T00:16:41.868Z,0.52
2023-01-07T00:19:13.444Z,1.15
2023-01-07T00:21:40.633Z,1.98
2023-01-07T00:24:09.830Z,1.20
2023-01-07T00:26:38.426Z,1.30
2023-01-07T00:29:06.911Z,0.82
2023-01-07T00:31:37.004Z,0.50
2023-01-07T00:34:04.362Z,1.92
2023-01-07T00:36:46.344Z,2.13
2023-01-07T00:39:16.632Z,1.10
2023-01-07T00:42:02.873Z,0.97
2023-01-07T00:44:30.640Z,1.20
2023-01-07T00:46:58.756Z,0.70
2023-01-07T00:49:26.078Z,0.50
2023-01-07T00:51:53.635Z,0.82
2023-01-07T00:54:20.696Z,0.47
2023-01-07T00:56:47.686Z,0.90
2023-01-07T00:59:14.566Z,0.98
2023-01-07T01:01:41.696Z,1.48
2023-01-07T01:04:08.800Z,1.02
2023-01-07T01:06:35.917Z,1.15
2023-01-07T01:09:03.294Z,0.40
2023-01-07T01:11:30.199Z,0.75
2023-01-07T01:13:57.037Z,1.05
2023-01-07T01:16:24.050Z,1.38
2023-01-07T01:18:50.987Z,0.85
2023-01-07T01:21:19.130Z,0.90
2023-01-07T01:23:46.123Z,0.85
2023-01-07T01:26:16.016Z,0.57
2023-01-07T01:28:43.819Z,0.55
2023-01-07T01:31:11.460Z,3.35
2023-01-07T01:33:38.538Z,1.40
2023-01-07T01:36:08.237Z,0.60
2023-01-07T01:38:35.175Z,0.80
2023-01-07T01:41:02.350Z,1.40
2023-01-07T01:43:35.331Z,0.63
2023-01-07T01:46:12.973Z,1.13
2023-01-07T01:48:46.640Z,4.25
2023-01-07T01:51:15.909Z,0.40
2023-01-07T01:53:42.981Z,0.88
2023-01-07T01:56:14.075Z,0.50
2023-01-07T01:58:50.191Z,0.73
2023-01-07T02:01:17.429Z,0.90
2023-01-07T02:03:45.126Z,1.02
2023-01-07T02:06:37.780Z,0.80
2023-01-07T02:09:05.139Z,1.83
2023-01-07T02:11:41.225Z,1.15
2023-01-07T02:14:38.109Z,0.55
2023-01-07T02:17:26.346Z,1.48
2023-01-07T02:20:11.306Z,1.00
2023-01-07T02:22:56.013Z,0.70
2023-01-07T02:26:00.176Z,1.10
2023-01-07T02:28:59.665Z,1.08
2023-01-07T02:31:26.506Z,0.68
2023-01-07T02:34:11.259Z,1.48
2023-01-07T02:36:45.141Z,0.93
2023-01-07T02:39:45.785Z,1.15
2023-01-07T02:42:15.320Z,1.47
2023-01-07T02:44:45.666Z,0.80
2023-01-07T02:47:26.415Z,2.03
2023-01-07T02:49:53.281Z,0.80
2023-01-07T02:52:25.878Z,0.70
2023-01-07T02:55:07.345Z,1.15
2023-01-07T02:58:12.644Z,1.48
2023-01-07T03:01:09.628Z,0.55
2023-01-07T03:03:46.667Z,0.98
2023-01-07T03:06:25.659Z,0.63
2023-01-07T03:09:12.765Z,0.70
2023-01-07T03:11:51.045Z,0.47
2023-01-07T03:14:32.886Z,0.82
2023-01-07T03:17:05.307Z,0.43
2023-01-07T03:19:35.969Z,1.00
2023-01-07T03:22:06.631Z,1.08
2023-01-07T03:24:33.914Z,0.88
2023-01-07T03:27:03.446Z,0.82
2023-01-07T03:29:32.544Z,0.98
2023-01-07T03:32:45.573Z,0.88
2023-01-07T03:35:12.767Z,0.98
2023-01-07T03:37:42.794Z,0.77
2023-01-07T03:40:12.065Z,0.70
2023-01-07T03:42:42.124Z,0.43
2023-01-07T03:45:15.112Z,0.85
2023-01-07T03:47:45.926Z,1.30
2023-01-07T03:50:12.795Z,2.08
2023-01-07T03:52:39.684Z,1.67
2023-01-07T03:55:07.322Z,0.43
2023-01-07T03:57:34.625Z,0.85
2023-01-07T04:00:01.657Z,0.40
2023-01-07T04:02:28.489Z,1.95
2023-01-07T04:04:55.384Z,0.40
2023-01-07T04:07:22.287Z,2.15
2023-01-07T04:09:50.630Z,0.80
2023-01-07T04:12:18.457Z,1.13
2023-01-07T04:14:45.627Z,0.63
2023-01-07T04:17:12.663Z,0.90
2023-01-07T04:19:39.997Z,0.57
2023-01-07T04:22:09.716Z,0.80
2023-01-07T04:24:36.546Z,0.20
2023-01-07T04:27:03.812Z,1.58
2023-01-07T04:29:30.800Z,0.55
2023-01-07T04:31:58.183Z,0.40
2023-01-07T04:34:25.841Z,0.90
2023-01-07T04:36:52.819Z,0.47
2023-01-07T04:39:19.890Z,0.60
2023-01-07T04:41:47.439Z,13.43
2023-01-07T04:44:15.750Z,1.40
2023-01-07T04:46:42.562Z,0.73
2023-01-07T04:49:09.871Z,0.30
2023-01-07T04:51:36.737Z,0.30
2023-01-07T04:54:03.619Z,0.20
2023-01-07T04:56:30.430Z,1.98
2023-01-07T04:58:57.331Z,1.83
2023-01-07T05:01:25.680Z,0.30
2023-01-07T05:03:52.642Z,0.50
2023-01-07T05:06:19.691Z,0.60
2023-01-07T05:08:46.512Z,1.35
2023-01-07T05:11:14.231Z,1.50
2023-01-07T05:13:41.043Z,0.70
2023-01-07T05:16:07.962Z,0.30
2023-01-07T05:18:34.783Z,0.40
2023-01-07T05:21:01.608Z,1.30
2023-01-07T05:23:28.443Z,0.63
2023-01-07T05:25:55.501Z,0.73
2023-01-07T05:28:22.351Z,0.35
2023-01-07T05:30:49.235Z,1.55
2023-01-07T05:33:16.107Z,0.85
2023-01-07T05:35:42.955Z,0.25
2023-01-07T05:38:09.877Z,0.43
2023-01-07T05:40:36.711Z,0.65
2023-01-07T05:43:03.639Z,0.30
2023-01-07T05:45:30.527Z,0.20
2023-01-07T05:47:57.496Z,0.55
2023-01-07T05:50:24.369Z,0.20
2023-01-07T05:52:52.182Z,0.30
2023-01-07T05:55:19.427Z,0.25
2023-01-07T05:57:46.277Z,1.85
2023-01-07T06:00:13.844Z,0.45
2023-01-07T06:02:40.680Z,1.33
2023-01-07T06:05:09.043Z,0.50
2023-01-07T06:07:36.402Z,1.65
2023-01-07T06:10:03.665Z,0.57
2023-01-07T06:12:31.054Z,0.20
2023-01-07T06:14:57.900Z,1.08
2023-01-07T06:17:24.730Z,0.40
2023-01-07T06:19:51.539Z,0.30
2023-01-07T06:22:18.424Z,0.20
2023-01-07T06:24:45.285Z,0.10
2023-01-07T06:27:13.037Z,0.57
2023-01-07T06:29:39.896Z,0.20
2023-01-07T06:32:07.040Z,1.23
2023-01-07T06:34:34.000Z,0.10
2023-01-07T06:37:01.009Z,0.57
2023-01-07T06:39:27.926Z,0.75
2023-01-07T06:41:54.806Z,0.50
2023-01-07T06:44:21.683Z,1.42
2023-01-07T06:46:48.506Z,0.10
2023-01-07T06:49:15.563Z,0.10
2023-01-07T06:51:42.354Z,1.00
2023-01-07T06:54:09.253Z,0.10
2023-01-07T06:56:36.065Z,5.65
2023-01-07T06:59:02.893Z,2.72
2023-01-07T07:01:29.797Z,2.00
2023-01-07T07:03:56.702Z,0.17
2023-01-07T07:06:23.565Z,4.18
2023-01-07T07:08:50.551Z,1.30
2023-01-07T07:11:17.418Z,1.42
2023-01-07T07:13:44.372Z,16.52
2023-01-07T07:16:11.453Z,9.43
2023-01-07T07:18:38.392Z,16.20
2023-01-07T07:21:05.413Z,15.00
2023-01-07T07:23:32.259Z,16.13
2023-01-07T07:25:59.155Z,8.70
2023-01-07T07:28:26.021Z,4.88
2023-01-07T07:30:52.921Z,18.98
2023-01-07T07:33:19.910Z,24.23
2023-01-07T07:35:47.197Z,13.32
2023-01-07T07:38:14.668Z,20.00
2023-01-07T07:40:41.499Z,13.45
2023-01-07T07:43:11.628Z,38.25
2023-01-07T07:48:08.044Z,7.40
2023-01-07T07:50:36.201Z,20.73
2023-01-07T07:53:03.268Z,23.25
2023-01-07T07:55:30.123Z,20.00
2023-01-07T07:57:58.562Z,10.90
2023-01-07T08:00:25.752Z,11.05
2023-01-07T08:02:52.811Z,5.28
2023-01-07T08:05:19.857Z,12.40
2023-01-07T08:07:46.793Z,8.18
2023-01-07T08:10:13.639Z,11.82
2023-01-07T08:12:40.555Z,3.15
2023-01-07T08:15:08.514Z,15.82
2023-01-07T08:17:36.619Z,9.20
2023-01-07T08:20:05.166Z,6.15
2023-01-07T08:22:33.493Z,12.07
2023-01-07T08:25:00.769Z,8.82
2023-01-07T08:27:28.273Z,6.60
2023-01-07T08:29:56.141Z,4.55
2023-01-07T08:32:23.423Z,7.57
2023-01-07T08:34:50.451Z,1.63
2023-01-07T08:37:17.451Z,6.93
2023-01-07T08:39:44.284Z,2.55
2023-01-07T08:42:11.170Z,3.42
2023-01-07T08:44:38.242Z,4.85
2023-01-07T08:47:05.146Z,4.95
2023-01-07T08:49:32.104Z,3.70
2023-01-07T08:51:59.009Z,2.88
2023-01-07T08:54:25.881Z,5.90
2023-01-07T08:56:52.881Z,1.40
2023-01-07T08:59:19.758Z,2.90
2023-01-07T09:01:46.867Z,6.20
2023-01-07T09:04:13.928Z,4.80
2023-01-07T09:06:40.981Z,5.28
2023-01-07T09:09:07.912Z,5.13
2023-01-07T09:11:35.201Z,2.33
2023-01-07T09:14:02.160Z,3.50
2023-01-07T09:16:29.142Z,5.80
2023-01-07T09:18:56.091Z,2.88
2023-01-07T09:21:23.021Z,6.72
2023-01-07T09:23:49.888Z,8.45
2023-01-07T09:26:17.819Z,3.55
2023-01-07T09:28:44.699Z,2.70
2023-01-07T09:31:11.700Z,4.25
2023-01-07T09:33:40.438Z,5.75
2023-01-07T09:36:07.571Z,11.02
2023-01-07T09:38:34.601Z,2.67
2023-01-07T09:41:01.607Z,14.48
2023-01-07T09:44:00.306Z,16.63
2023-01-07T09:46:29.562Z,14.75
2023-01-07T09:49:01.985Z,9.63
2023-01-07T09:51:39.514Z,21.80
2023-01-07T09:54:21.982Z,20.45
2023-01-07T09:56:48.940Z,8.15
2023-01-07T09:59:16.809Z,4.60
2023-01-07T10:01:56.091Z,7.35
2023-01-07T10:04:42.427Z,2.25
2023-01-07T10:07:21.397Z,3.13
2023-01-07T10:09:59.333Z,5.85
2023-01-07T10:12:59.599Z,3.05
2023-01-07T10:15:35.970Z,1.52
2023-01-07T10:18:54.884Z,5.97
2023-01-07T10:21:24.140Z,5.75
2023-01-07T10:24:03.474Z,2.92
2023-01-07T10:26:36.099Z,1.00
2023-01-07T10:29:16.548Z,6.13
2023-01-07T10:31:46.089Z,1.63
2023-01-07T10:34:23.361Z,1.65
2023-01-07T10:37:03.699Z,2.25
2023-01-07T10:39:45.748Z,0.90
2023-01-07T10:42:46.577Z,1.45
2023-01-07T10:45:41.299Z,1.52
2023-01-07T10:48:23.207Z,1.40
2023-01-07T10:51:21.021Z,2.95
2023-01-07T10:54:03.859Z,0.45
2023-01-07T10:56:36.707Z,1.35
2023-01-07T10:59:04.462Z,0.30
2023-01-07T11:01:34.093Z,0.50
2023-01-07T11:04:02.000Z,0.88
2023-01-07T11:06:48.579Z,3.30
2023-01-07T11:09:23.307Z,0.45
2023-01-07T11:11:51.653Z,0.40
2023-01-07T11:14:28.637Z,1.95
2023-01-07T11:17:07.884Z,0.60
2023-01-07T11:19:49.629Z,1.55
2023-01-07T11:22:39.304Z,0.55
2023-01-07T11:25:24.555Z,0.63
2023-01-07T11:27:51.541Z,1.98
2023-01-07T11:30:26.740Z,2.15
2023-01-07T11:34:02.651Z,0.68
2023-01-07T11:36:13.043Z,3.33
2023-01-07T11:38:40.393Z,4.00
2023-01-07T11:41:20.696Z,6.03
2023-01-07T11:43:54.180Z,4.80
2023-01-07T11:46:25.904Z,11.30
2023-01-07T11:49:01.723Z,15.43
2023-01-07T11:51:40.424Z,7.57
2023-01-07T11:54:29.507Z,6.93
2023-01-07T11:57:22.975Z,7.95
2023-01-07T12:00:15.986Z,20.10
2023-01-07T12:02:44.273Z,11.80
2023-01-07T12:05:26.702Z,6.53
2023-01-07T12:07:55.966Z,21.40
2023-01-07T12:10:30.263Z,12.02
2023-01-07T12:12:59.811Z,21.85
2023-01-07T12:15:35.409Z,6.13
2023-01-07T12:18:08.217Z,12.98
2023-01-07T12:21:02.705Z,24.45
2023-01-07T12:23:53.817Z,13.13
2023-01-07T12:26:29.600Z,32.35
2023-01-07T12:29:02.781Z,14.27
2023-01-07T12:31:32.304Z,7.72
2023-01-07T12:34:17.409Z,10.65
2023-01-07T12:36:47.298Z,11.10
2023-01-07T12:39:24.864Z,9.80
2023-01-07T12:42:18.127Z,9.00
2023-01-07T12:44:53.409Z,22.42
2023-01-07T12:47:44.537Z,38.47
2023-01-07T12:50:18.531Z,49.58
2023-01-07T12:53:08.797Z,46.70
2023-01-07T12:55:41.139Z,81.18
2023-01-07T12:58:26.600Z,67.90
2023-01-07T13:01:27.217Z,55.63
2023-01-07T13:03:57.628Z,53.17
2023-01-07T13:06:43.034Z,55.37
2023-01-07T13:09:21.613Z,78.35
2023-01-07T13:12:41.700Z,74.50
2023-01-07T13:15:29.209Z,59.47
2023-01-07T13:17:57.296Z,53.10
2023-01-07T13:20:48.580Z,55.10
2023-01-07T13:26:15.298Z,46.20
2023-01-07T13:28:48.199Z,47.28
2023-01-07T13:31:47.046Z,54.80
2023-01-07T13:34:31.966Z,66.40
2023-01-07T13:37:36.476Z,53.03
2023-01-07T13:40:39.147Z,45.10
2023-01-07T13:43:21.839Z,38.72
2023-01-07T13:46:05.084Z,32.75
2023-01-07T13:48:34.998Z,39.85
2023-01-07T13:51:05.120Z,49.17
2023-01-07T13:53:40.376Z,29.90
2023-01-07T13:56:19.453Z,29.05
2023-01-07T13:58:46.687Z,24.85
2023-01-07T14:01:16.056Z,36.88
2023-01-07T14:03:50.357Z,18.88
2023-01-07T14:06:20.327Z,34.20
2023-01-07T14:09:14.151Z,38.00
2023-01-07T14:11:59.702Z,37.72
2023-01-07T14:14:36.167Z,22.38
2023-01-07T14:17:18.079Z,24.63
2023-01-07T14:20:11.515Z,13.13
2023-01-07T14:23:01.272Z,17.73
2023-01-07T14:25:58.616Z,26.92
2023-01-07T14:28:40.661Z,15.52
2023-01-07T14:31:24.583Z,15.40
2023-01-07T14:33:58.569Z,5.65
2023-01-07T14:37:09.182Z,14.75
2023-01-07T14:39:38.780Z,15.97
2023-01-07T14:42:20.843Z,12.88
2023-01-07T14:44:51.711Z,5.03
2023-01-07T14:47:43.480Z,5.72
2023-01-07T14:50:53.262Z,5.90
2023-01-07T14:53:48.220Z,12.05
2023-01-07T14:56:18.108Z,6.75
2023-01-07T14:59:18.747Z,15.38
2023-01-07T15:02:03.568Z,8.83
2023-01-07T15:05:08.028Z,4.72
2023-01-07T15:07:38.660Z,8.10
2023-01-07T15:10:42.072Z,18.67
2023-01-07T15:13:35.354Z,11.80
2023-01-07T15:16:07.690Z,9.55
2023-01-07T15:18:48.398Z,5.38
2023-01-07T15:21:30.281Z,10.32
2023-01-07T15:24:15.575Z,6.10
2023-01-07T15:27:19.782Z,6.82
2023-01-07T15:30:24.495Z,13.25
2023-01-07T15:32:56.840Z,6.80
2023-01-07T15:35:28.880Z,8.70
2023-01-07T15:37:57.060Z,6.03
2023-01-07T15:40:26.239Z,5.40
2023-01-07T15:42:57.397Z,9.15
2023-01-07T15:47:52.659Z,4.03
2023-01-07T15:50:29.487Z,5.95
2023-01-07T15:52:57.922Z,7.00
2023-01-07T15:55:33.927Z,3.15
2023-01-07T15:58:05.388Z,12.25
2023-01-07T16:00:35.247Z,3.22
2023-01-07T16:03:04.775Z,3.75
2023-01-07T16:05:32.489Z,1.73
2023-01-07T16:08:01.599Z,5.35
2023-01-07T16:10:35.121Z,4.13
2023-01-07T16:13:05.453Z,3.60
2023-01-07T16:15:38.814Z,8.30
2023-01-07T16:18:25.995Z,5.22
2023-01-07T16:20:57.834Z,5.82
2023-01-07T16:23:31.014Z,6.55
2023-01-07T16:26:06.895Z,5.07
2023-01-07T16:28:47.132Z,1.38
2023-01-07T16:31:16.542Z,8.93
2023-01-07T16:33:44.378Z,7.63
2023-01-07T16:36:17.868Z,15.15
2023-01-07T16:38:50.627Z,15.50
2023-01-07T16:41:22.911Z,15.05
2023-01-07T16:43:53.075Z,12.32
2023-01-07T16:46:31.461Z,17.02
2023-01-07T16:49:20.133Z,12.68
2023-01-07T16:51:53.120Z,16.98
2023-01-07T16:54:26.217Z,12.40
2023-01-07T16:56:58.974Z,11.25
2023-01-07T16:59:30.738Z,10.57
2023-01-07T17:02:00.391Z,8.90
2023-01-07T17:04:30.925Z,11.70
2023-01-07T17:07:01.401Z,7.60
2023-01-07T17:09:36.185Z,11.45
2023-01-07T17:12:03.197Z,9.05
2023-01-07T17:14:37.080Z,16.17
2023-01-07T17:17:21.060Z,17.95
2023-01-07T17:19:58.505Z,15.75
2023-01-07T17:22:38.899Z,12.23
2023-01-07T17:25:21.921Z,22.13
2023-01-07T17:27:53.688Z,10.43
2023-01-07T17:30:22.994Z,11.65
2023-01-07T17:32:51.179Z,20.10
2023-01-07T17:35:19.400Z,6.97
2023-01-07T17:37:46.575Z,5.20
2023-01-07T17:40:14.664Z,12.40
2023-01-07T17:43:00.948Z,15.73
2023-01-07T17:45:29.326Z,13.82
2023-01-07T17:47:57.245Z,7.78
2023-01-07T17:50:24.301Z,8.50
2023-01-07T17:52:55.111Z,19.17
2023-01-07T17:55:26.201Z,17.75
2023-01-07T18:00:23.509Z,11.18
2023-01-07T18:02:51.700Z,10.57
2023-01-07T18:05:18.883Z,9.13
2023-01-07T18:07:48.251Z,7.13
2023-01-07T18:10:17.297Z,24.13
2023-01-07T18:12:45.109Z,13.35
2023-01-07T18:15:24.992Z,14.35
2023-01-07T18:17:52.810Z,15.88
2023-01-07T18:20:21.959Z,24.48
2023-01-07T18:22:50.188Z,23.20
2023-01-07T18:25:20.212Z,18.30
2023-01-07T18:27:48.754Z,27.83
2023-01-07T18:30:19.115Z,27.67
2023-01-07T18:32:46.661Z,24.38
2023-01-07T18:35:14.656Z,13.88
2023-01-07T18:37:43.467Z,16.90
2023-01-07T18:40:10.833Z,12.10
2023-01-07T18:42:38.088Z,10.10
2023-01-07T18:45:07.339Z,9.95
2023-01-07T18:47:34.647Z,26.25
2023-01-07T18:50:02.071Z,20.02
2023-01-07T18:52:32.138Z,32.67
2023-01-07T18:54:59.910Z,28.15
2023-01-07T18:57:27.226Z,45.40
2023-01-07T18:59:54.397Z,106.93
2023-01-07T19:02:22.573Z,67.80
2023-01-07T19:04:51.814Z,93.85
2023-01-07T19:07:22.402Z,104.10
2023-01-07T19:09:51.380Z,105.32
2023-01-07T19:12:19.384Z,115.00
2023-01-07T19:14:46.678Z,137.90
2023-01-07T19:17:13.803Z,126.28
2023-01-07T19:19:48.473Z,161.50
2023-01-07T19:22:16.934Z,107.25
2023-01-07T19:24:44.810Z,95.07
2023-01-07T19:27:12.481Z,100.22
2023-01-07T19:29:39.873Z,96.88
2023-01-07T19:32:07.132Z,87.82
2023-01-07T19:34:34.355Z,77.63
2023-01-07T19:37:01.529Z,71.53
2023-01-07T19:39:28.968Z,66.90
2023-01-07T19:41:56.105Z,62.30
2023-01-07T19:44:23.144Z,50.22
2023-01-07T19:46:50.233Z,52.80
2023-01-07T19:49:17.855Z,43.22
2023-01-07T19:51:45.129Z,47.20
2023-01-07T19:54:17.409Z,42.47
2023-01-07T19:56:46.454Z,37.92
2023-01-07T19:59:16.871Z,27.48
2023-01-07T20:01:46.358Z,36.13
2023-01-07T20:04:14.188Z,26.85
2023-01-07T20:06:42.013Z,20.45
2023-01-07T20:09:12.627Z,17.52
2023-01-07T20:11:41.007Z,17.92
2023-01-07T20:14:08.577Z,20.45
2023-01-07T20:16:39.945Z,17.38
2023-01-07T20:19:07.740Z,17.42
2023-01-07T20:21:39.323Z,20.90
2023-01-07T20:24:08.072Z,13.93
2023-01-07T20:26:35.945Z,14.05
2023-01-07T20:29:03.066Z,11.75
2023-01-07T20:31:32.197Z,9.40
2023-01-07T20:34:00.434Z,9.43
2023-01-07T20:36:34.025Z,23.33
2023-01-07T20:39:06.669Z,10.30
2023-01-07T20:41:36.110Z,27.75
2023-01-07T20:44:04.971Z,13.57
2023-01-07T20:46:35.515Z,11.00
2023-01-07T20:49:02.905Z,18.15
2023-01-07T20:51:30.136Z,17.05
2023-01-07T20:53:58.336Z,31.52
2023-01-07T20:56:32.536Z,18.15
2023-01-07T20:59:02.695Z,11.23
2023-01-07T21:01:30.664Z,40.47
2023-01-07T21:04:02.769Z,14.73
2023-01-07T21:06:31.657Z,10.23
2023-01-07T21:09:03.338Z,16.67
2023-01-07T21:11:30.950Z,14.38
2023-01-07T21:13:58.536Z,49.85
2023-01-07T21:16:28.971Z,18.90
2023-01-07T21:18:57.102Z,14.32
2023-01-07T21:21:26.734Z,7.05
2023-01-07T21:23:55.495Z,6.93
2023-01-07T21:26:24.117Z,6.85
2023-01-07T21:28:59.990Z,7.38
2023-01-07T21:31:28.297Z,8.32
2023-01-07T21:33:58.741Z,6.53
2023-01-07T21:36:28.694Z,10.27
2023-01-07T21:38:59.717Z,3.47
2023-01-07T21:43:56.418Z,5.40
2023-01-07T21:46:26.805Z,9.07
2023-01-07T21:48:53.844Z,6.05
2023-01-07T21:51:26.141Z,10.13
2023-01-07T21:53:58.590Z,4.47
2023-01-07T21:56:32.503Z,5.40
2023-01-07T21:59:00.288Z,6.35
2023-01-07T22:01:30.845Z,2.35
2023-01-07T22:03:59.632Z,5.00
2023-01-07T22:06:30.485Z,2.30
2023-01-07T22:09:05.500Z,4.15
2023-01-07T22:11:35.488Z,3.63
2023-01-07T22:14:03.441Z,5.10
2023-01-07T22:16:35.877Z,3.53
2023-01-07T22:19:04.042Z,3.10
2023-01-07T22:21:33.122Z,4.43
2023-01-07T22:24:00.263Z,4.95
2023-01-07T22:26:27.388Z,3.45
2023-01-07T22:28:58.206Z,2.08
2023-01-07T22:31:28.912Z,3.88
2023-01-07T22:33:56.738Z,2.20
2023-01-07T22:36:31.512Z,2.60
2023-01-07T22:39:03.167Z,2.30
2023-01-07T22:41:33.896Z,2.97
2023-01-07T22:44:09.973Z,2.63
2023-01-07T22:46:39.480Z,2.15
2023-01-07T22:49:07.405Z,2.08
2023-01-07T22:51:44.120Z,4.82
2023-01-07T22:54:14.092Z,2.03
2023-01-07T22:56:42.660Z,2.65
2023-01-07T22:59:10.095Z,3.53
2023-01-07T23:01:41.177Z,2.00
2023-01-07T23:06:35.692Z,2.63
2023-01-07T23:09:03.131Z,4.63
2023-01-07T23:11:51.356Z,3.10
2023-01-07T23:14:21.647Z,2.88
2023-01-07T23:16:50.313Z,2.27
2023-01-07T23:19:20.183Z,3.35
2023-01-07T23:21:49.594Z,3.83
2023-01-07T23:24:17.082Z,2.65
2023-01-07T23:26:44.634Z,2.97
2023-01-07T23:29:11.698Z,2.40
2023-01-07T23:31:38.949Z,2.70
2023-01-07T23:34:06.826Z,2.50
2023-01-07T23:36:35.699Z,3.05
2023-01-07T23:39:02.876Z,2.60
2023-01-07T23:41:31.286Z,1.92
2023-01-07T23:43:58.445Z,3.50
2023-01-07T23:46:25.349Z,4.15
2023-01-07T23:48:52.641Z,3.85
2023-01-07T23:51:21.577Z,4.28
2023-01-07T23:53:48.833Z,3.92
2023-01-07T23:56:20.768Z,4.38
2023-01-07T23:58:49.152Z,3.08
